createdAt,value
2023-05-06T00:01:48.457Z,12.75
2023-05-06T00:04:16.519Z,12.78
2023-05-06T00:06:45.325Z,12.77
2023-05-06T00:09:12.718Z,12.77
2023-05-06T00:11:40.558Z,12.70
2023-05-06T00:14:07.951Z,12.75
2023-05-06T00:16:35.410Z,12.74
2023-05-06T00:19:02.833Z,12.76
2023-05-06T00:21:30.230Z,12.77
2023-05-06T00:23:58.973Z,12.79
2023-05-06T00:26:26.348Z,12.82
2023-05-06T00:28:54.032Z,12.80
2023-05-06T00:31:21.445Z,12.78
2023-05-06T00:33:48.875Z,12.85
2023-05-06T00:36:16.255Z,12.76
2023-05-06T00:38:43.638Z,12.68
2023-05-06T00:41:12.337Z,12.71
2023-05-06T00:43:39.737Z,12.72
2023-05-06T00:46:09.402Z,12.64
2023-05-06T00:48:37.291Z,12.64
2023-05-06T00:51:05.440Z,12.64
2023-05-06T00:53:32.967Z,12.64
2023-05-06T00:56:00.720Z,12.64
2023-05-06T00:58:29.474Z,12.64
2023-05-06T01:00:57.495Z,12.64
2023-05-06T01:03:24.989Z,12.64
2023-05-06T01:09:12.907Z,12.64
2023-05-06T01:11:46.534Z,12.64
2023-05-06T01:14:22.718Z,12.64
2023-05-06T01:16:55.889Z,12.64
2023-05-06T01:19:35.957Z,12.64
2023-05-06T01:22:06.414Z,12.64
2023-05-06T01:24:39.559Z,12.64
2023-05-06T01:27:07.098Z,12.61
2023-05-06T01:29:36.461Z,12.59
2023-05-06T01:32:19.033Z,12.59
2023-05-06T01:34:54.764Z,12.59
2023-05-06T01:37:27.456Z,12.62
2023-05-06T01:40:00.426Z,12.62
2023-05-06T01:42:27.925Z,12.54
2023-05-06T01:44:57.762Z,12.53
2023-05-06T01:47:25.866Z,12.53
2023-05-06T01:49:53.561Z,12.47
2023-05-06T01:52:22.154Z,12.47
2023-05-06T01:54:49.650Z,12.47
2023-05-06T01:57:18.562Z,12.47
2023-05-06T01:59:46.249Z,12.47
2023-05-06T02:02:13.669Z,12.47
2023-05-06T02:04:41.170Z,12.47
2023-05-06T02:07:08.717Z,12.47
2023-05-06T02:09:36.281Z,12.04
2023-05-06T02:12:03.818Z,12.04
2023-05-06T02:14:33.734Z,12.04
2023-05-06T02:17:04.456Z,12.04
2023-05-06T02:19:31.878Z,12.04
2023-05-06T02:21:59.277Z,12.04
2023-05-06T02:24:27.079Z,12.04
2023-05-06T02:26:55.476Z,12.04
2023-05-06T02:29:22.900Z,12.04
2023-05-06T02:31:51.968Z,12.04
2023-05-06T02:34:19.388Z,12.04
2023-05-06T02:36:46.826Z,12.04
2023-05-06T02:39:14.343Z,12.04
2023-05-06T02:41:41.982Z,12.04
2023-05-06T02:44:09.379Z,12.04
2023-05-06T02:46:36.816Z,12.04
2023-05-06T02:49:05.525Z,12.04
2023-05-06T02:51:33.115Z,12.04
2023-05-06T02:54:00.522Z,12.04
2023-05-06T02:56:27.929Z,12.04
2023-05-06T02:58:55.320Z,12.04
2023-05-06T03:01:22.876Z,-139.23
2023-05-06T03:03:50.709Z,12.04
2023-05-06T03:06:19.651Z,12.04
2023-05-06T03:08:47.165Z,12.04
2023-05-06T03:11:14.541Z,12.04
2023-05-06T03:13:41.937Z,12.04
2023-05-06T03:16:13.066Z,12.04
2023-05-06T03:18:40.532Z,12.04
2023-05-06T03:21:07.972Z,-139.23
2023-05-06T03:23:36.743Z,-139.23
2023-05-06T03:26:04.202Z,-139.23
2023-05-06T03:28:31.803Z,-139.23
2023-05-06T03:30:59.342Z,-139.23
2023-05-06T03:33:26.753Z,-139.23
2023-05-06T03:35:54.184Z,-139.23
2023-05-06T03:38:21.555Z,-139.23
2023-05-06T03:40:50.465Z,-139.23
2023-05-06T03:43:17.973Z,-139.23
2023-05-06T03:45:45.373Z,-139.23
2023-05-06T03:48:12.847Z,-139.23
2023-05-06T03:50:40.563Z,-139.23
2023-05-06T03:53:08.006Z,-139.23
2023-05-06T03:55:35.479Z,-139.23
2023-05-06T03:58:04.210Z,-139.23
2023-05-06T04:00:31.642Z,-139.23
2023-05-06T04:02:59.137Z,-139.23
2023-05-06T04:05:26.527Z,-139.23
2023-05-06T04:07:54.384Z,-139.23
2023-05-06T04:10:22.594Z,-139.23
2023-05-06T04:12:50.069Z,-139.23
2023-05-06T04:15:19.223Z,-139.23
2023-05-06T04:17:46.897Z,-139.23
2023-05-06T04:20:14.551Z,-139.23
2023-05-06T04:22:42.049Z,-139.23
2023-05-06T04:25:11.269Z,-139.23
2023-05-06T04:27:38.723Z,-139.23
2023-05-06T04:30:07.163Z,-139.23
2023-05-06T04:32:36.519Z,-139.23
2023-05-06T04:35:04.273Z,-139.23
2023-05-06T04:37:31.710Z,-139.23
2023-05-06T04:39:59.102Z,-139.23
2023-05-06T04:42:26.741Z,-139.23
2023-05-06T04:44:54.525Z,-139.23
2023-05-06T04:47:22.027Z,-139.23
2023-05-06T04:49:50.931Z,-139.23
2023-05-06T04:52:18.333Z,-139.23
2023-05-06T04:54:45.869Z,-139.23
2023-05-06T04:57:13.275Z,-139.23
2023-05-06T04:59:42.615Z,-139.23
2023-05-06T05:02:10.036Z,-139.23
2023-05-06T05:04:37.450Z,-139.23
2023-05-06T05:07:07.408Z,-139.23
2023-05-06T05:09:34.930Z,-139.23
2023-05-06T05:12:02.523Z,-139.23
2023-05-06T05:14:29.933Z,-139.23
2023-05-06T05:16:57.480Z,-139.23
2023-05-06T05:19:25.036Z,-139.23
2023-05-06T05:21:52.435Z,-139.23
2023-05-06T05:24:21.926Z,-139.23
2023-05-06T05:26:49.317Z,-139.23
2023-05-06T05:29:16.730Z,-139.23
2023-05-06T05:31:44.210Z,-139.23
2023-05-06T05:34:11.659Z,-139.23
2023-05-06T05:36:39.026Z,-139.23
2023-05-06T05:39:06.416Z,-139.23
2023-05-06T05:41:35.112Z,-139.23
2023-05-06T05:44:02.994Z,-139.23
2023-05-06T05:46:30.524Z,-139.23
2023-05-06T05:48:57.931Z,-139.23
2023-05-06T05:51:26.771Z,-139.23
2023-05-06T05:53:54.209Z,-139.23
2023-05-06T05:56:21.619Z,-139.23
2023-05-06T05:58:50.344Z,-139.23
2023-05-06T06:01:17.879Z,-139.23
2023-05-06T06:03:45.720Z,-139.23
2023-05-06T06:06:13.268Z,-139.23
2023-05-06T06:08:41.426Z,-139.23
2023-05-06T06:11:08.892Z,-139.23
2023-05-06T06:13:36.271Z,-139.23
2023-05-06T06:16:05.932Z,-139.23
2023-05-06T06:18:33.384Z,-139.23
2023-05-06T06:21:00.942Z,-139.23
2023-05-06T06:23:28.330Z,-139.23
2023-05-06T06:25:55.789Z,-139.23
2023-05-06T06:28:23.179Z,-139.23
2023-05-06T06:30:50.715Z,-139.23
2023-05-06T06:33:19.407Z,-139.23
2023-05-06T06:35:46.785Z,-139.23
2023-05-06T06:38:14.510Z,-139.23
2023-05-06T06:40:41.958Z,-139.23
2023-05-06T06:43:09.330Z,-139.23
2023-05-06T06:45:36.757Z,-139.23
2023-05-06T06:48:04.537Z,-139.23
2023-05-06T06:50:33.333Z,-139.23
2023-05-06T06:53:01.030Z,-139.23
2023-05-06T06:55:28.402Z,-139.23
2023-05-06T06:57:58.166Z,-139.23
2023-05-06T07:00:26.195Z,-139.23
2023-05-06T07:02:53.916Z,-139.23
2023-05-06T07:05:21.433Z,-139.23
2023-05-06T07:07:50.162Z,-139.23
2023-05-06T07:10:17.551Z,-139.23
2023-05-06T07:12:44.943Z,-139.23
2023-05-06T07:15:12.694Z,-139.23
2023-05-06T07:17:40.381Z,-139.23
2023-05-06T07:20:09.096Z,-139.23
2023-05-06T07:22:36.956Z,-139.23
2023-05-06T07:25:06.561Z,-139.23
2023-05-06T07:27:33.959Z,-139.23
2023-05-06T07:30:01.452Z,-139.23
2023-05-06T07:32:28.879Z,-139.23
2023-05-06T07:34:56.325Z,-139.23
2023-05-06T07:37:23.698Z,-139.23
2023-05-06T07:39:51.324Z,-139.23
2023-05-06T07:42:20.041Z,-139.23
2023-05-06T07:44:47.648Z,-139.23
2023-05-06T07:47:26.235Z,-139.23
2023-05-06T07:49:53.775Z,-139.23
2023-05-06T07:52:21.231Z,-139.23
2023-05-06T07:54:48.598Z,-139.23
2023-05-06T07:57:16.794Z,-139.23
2023-05-06T07:59:48.542Z,-139.23
2023-05-06T08:02:16.581Z,-139.23
2023-05-06T08:04:44.059Z,-139.23
2023-05-06T08:07:11.928Z,-139.23
2023-05-06T08:09:39.579Z,-139.23
2023-05-06T08:12:07.283Z,-139.23
2023-05-06T08:14:34.749Z,-139.23
2023-05-06T08:17:03.796Z,-139.23
2023-05-06T08:19:31.183Z,-139.23
2023-05-06T08:21:58.559Z,-139.23
2023-05-06T08:24:26.019Z,-139.23
2023-05-06T08:26:53.477Z,-139.23
2023-05-06T08:29:20.833Z,-139.23
2023-05-06T08:31:48.323Z,-139.23
2023-05-06T08:34:18.484Z,-139.23
2023-05-06T08:36:46.036Z,-139.23
2023-05-06T08:39:14.438Z,-139.23
2023-05-06T08:41:43.331Z,-139.23
2023-05-06T08:44:10.982Z,-139.23
2023-05-06T08:46:38.554Z,-139.23
2023-05-06T08:49:06.779Z,-139.23
2023-05-06T08:51:36.220Z,-139.23
2023-05-06T08:54:05.262Z,-139.23
2023-05-06T08:56:34.440Z,-139.23
2023-05-06T08:59:02.141Z,-139.23
2023-05-06T09:01:29.951Z,-139.23
2023-05-06T09:03:58.829Z,-139.23
2023-05-06T09:06:27.134Z,-139.23
2023-05-06T09:09:06.382Z,23.20
2023-05-06T09:11:33.767Z,23.25
2023-05-06T09:14:10.662Z,22.45
2023-05-06T09:16:38.999Z,22.48
2023-05-06T09:19:07.302Z,21.85
2023-05-06T09:21:35.877Z,21.89
2023-05-06T09:24:06.382Z,20.48
2023-05-06T09:26:34.780Z,20.18
2023-05-06T09:29:03.677Z,19.72
2023-05-06T09:31:33.166Z,19.03
2023-05-06T09:34:01.809Z,19.57
2023-05-06T09:36:30.936Z,20.00
2023-05-06T09:38:58.415Z,22.01
2023-05-06T09:41:27.437Z,22.78
2023-05-06T09:43:55.830Z,22.52
2023-05-06T09:46:24.851Z,22.92
2023-05-06T09:48:54.093Z,23.22
2023-05-06T09:51:21.813Z,23.76
2023-05-06T09:53:49.480Z,24.32
2023-05-06T09:56:17.262Z,24.08
2023-05-06T09:58:47.352Z,24.11
2023-05-06T10:01:25.187Z,23.42
2023-05-06T10:04:04.808Z,23.17
2023-05-06T10:06:35.511Z,24.13
2023-05-06T10:09:03.260Z,24.90
2023-05-06T10:11:32.020Z,25.74
2023-05-06T10:14:02.211Z,25.57
2023-05-06T10:16:30.447Z,24.48
2023-05-06T10:18:59.312Z,23.83
2023-05-06T10:21:28.866Z,23.69
2023-05-06T10:24:04.161Z,24.37
2023-05-06T10:26:31.916Z,24.50
2023-05-06T10:29:02.557Z,23.87
2023-05-06T10:31:31.700Z,24.35
2023-05-06T10:34:04.003Z,25.73
2023-05-06T10:36:36.279Z,27.27
2023-05-06T10:39:04.780Z,28.69
2023-05-06T10:41:33.293Z,29.88
2023-05-06T10:44:02.077Z,31.04
2023-05-06T10:46:31.159Z,30.13
2023-05-06T10:49:19.367Z,28.78
2023-05-06T10:51:47.757Z,26.96
2023-05-06T10:54:23.549Z,26.66
2023-05-06T10:57:09.405Z,26.77
2023-05-06T10:59:38.156Z,25.64
2023-05-06T11:02:11.498Z,25.39
2023-05-06T11:04:39.724Z,26.36
2023-05-06T11:07:11.861Z,26.91
2023-05-06T11:09:55.562Z,27.85
2023-05-06T11:12:23.629Z,28.00
2023-05-06T11:14:52.358Z,26.83
2023-05-06T11:17:33.472Z,26.60
2023-05-06T11:20:20.727Z,26.46
2023-05-06T11:22:48.324Z,27.64
2023-05-06T11:25:15.756Z,26.90
2023-05-06T11:27:43.153Z,26.69
2023-05-06T11:30:15.884Z,26.82
2023-05-06T11:32:44.100Z,28.51
2023-05-06T11:35:12.796Z,28.90
2023-05-06T11:37:43.261Z,30.13
2023-05-06T11:40:15.452Z,31.04
2023-05-06T11:42:42.857Z,31.95
2023-05-06T11:45:12.350Z,32.22
2023-05-06T11:47:45.554Z,34.16
2023-05-06T11:50:13.162Z,34.92
2023-05-06T11:52:41.063Z,35.47
2023-05-06T11:55:10.814Z,35.11
2023-05-06T11:57:44.639Z,31.71
2023-05-06T12:00:13.122Z,27.99
2023-05-06T12:02:41.448Z,27.63
2023-05-06T12:05:10.973Z,27.76
2023-05-06T12:07:39.312Z,27.90
2023-05-06T12:10:08.502Z,26.95
2023-05-06T12:12:36.295Z,26.09
2023-05-06T12:15:08.563Z,25.59
2023-05-06T12:17:36.131Z,25.43
2023-05-06T12:20:04.678Z,27.86
2023-05-06T12:22:33.443Z,31.56
2023-05-06T12:25:13.861Z,35.33
2023-05-06T12:27:41.548Z,36.66
2023-05-06T12:30:11.127Z,38.00
2023-05-06T12:32:58.154Z,36.41
2023-05-06T12:35:28.633Z,35.06
2023-05-06T12:37:57.811Z,34.03
2023-05-06T12:40:25.294Z,33.98
2023-05-06T12:42:56.225Z,35.43
2023-05-06T12:45:25.416Z,35.07
2023-05-06T12:47:54.738Z,33.14
2023-05-06T12:50:32.884Z,32.98
2023-05-06T12:53:02.370Z,31.21
2023-05-06T12:55:31.345Z,30.89
2023-05-06T12:57:58.802Z,31.76
2023-05-06T13:00:26.280Z,34.24
2023-05-06T13:02:53.832Z,36.42
2023-05-06T13:05:22.603Z,36.33
2023-05-06T13:07:51.142Z,35.85
2023-05-06T13:10:20.894Z,33.51
2023-05-06T13:12:48.516Z,31.33
2023-05-06T13:15:15.999Z,28.32
2023-05-06T13:17:43.452Z,28.08
2023-05-06T13:20:13.416Z,29.93
2023-05-06T13:22:53.322Z,32.01
2023-05-06T13:25:23.411Z,31.70
2023-05-06T13:27:50.791Z,28.46
2023-05-06T13:30:20.006Z,26.74
2023-05-06T13:32:48.106Z,25.57
2023-05-06T13:35:15.669Z,24.38
2023-05-06T13:37:43.091Z,28.04
2023-05-06T13:40:11.742Z,31.68
2023-05-06T13:42:40.611Z,34.35
2023-05-06T13:45:09.597Z,33.03
2023-05-06T13:47:37.033Z,33.67
2023-05-06T13:50:05.731Z,32.63
2023-05-06T13:52:33.254Z,33.68
2023-05-06T13:55:00.820Z,35.66
2023-05-06T13:57:29.545Z,31.38
2023-05-06T13:59:58.246Z,30.91
2023-05-06T14:02:26.432Z,30.08
2023-05-06T14:04:54.921Z,29.10
2023-05-06T14:07:22.328Z,28.47
2023-05-06T14:09:49.770Z,27.90
2023-05-06T14:12:17.136Z,28.78
2023-05-06T14:14:44.505Z,30.76
2023-05-06T14:17:13.200Z,30.38
2023-05-06T14:19:40.579Z,29.49
2023-05-06T14:22:07.992Z,29.38
2023-05-06T14:24:35.408Z,29.27
2023-05-06T14:27:04.130Z,28.64
2023-05-06T14:29:32.081Z,29.37
2023-05-06T14:31:59.618Z,30.42
2023-05-06T14:34:28.390Z,31.82
2023-05-06T14:36:55.822Z,32.78
2023-05-06T14:39:23.239Z,31.50
2023-05-06T14:41:50.958Z,30.45
2023-05-06T14:44:18.321Z,29.46
2023-05-06T14:46:45.739Z,28.77
2023-05-06T14:49:13.146Z,29.93
2023-05-06T14:51:44.898Z,31.62
2023-05-06T14:54:12.498Z,32.54
2023-05-06T14:56:39.878Z,31.40
2023-05-06T14:59:07.502Z,30.31
2023-05-06T15:01:34.950Z,30.52
2023-05-06T15:04:02.431Z,30.89
2023-05-06T15:06:30.127Z,32.19
2023-05-06T15:08:59.230Z,31.66
2023-05-06T15:11:26.666Z,31.91
2023-05-06T15:13:54.592Z,31.74
2023-05-06T15:16:22.234Z,32.20
2023-05-06T15:18:49.645Z,31.56
2023-05-06T15:21:17.507Z,30.66
2023-05-06T15:23:47.088Z,30.20
2023-05-06T15:26:17.414Z,30.95
2023-05-06T15:28:44.787Z,31.81
2023-05-06T15:31:12.288Z,31.51
2023-05-06T15:33:39.724Z,31.62
2023-05-06T15:36:07.733Z,31.78
2023-05-06T15:38:59.665Z,33.15
2023-05-06T15:41:30.286Z,33.18
2023-05-06T15:43:59.053Z,33.13
2023-05-06T15:46:27.283Z,33.34
2023-05-06T15:49:15.762Z,32.69
2023-05-06T15:51:42.103Z,33.26
2023-05-06T15:54:09.461Z,34.00
2023-05-06T15:56:41.114Z,33.42
2023-05-06T15:59:09.402Z,34.14
2023-05-06T16:02:18.783Z,33.76
2023-05-06T16:04:25.362Z,33.11
2023-05-06T16:06:52.938Z,32.11
2023-05-06T16:09:20.291Z,30.45
2023-05-06T16:11:49.133Z,29.43
2023-05-06T16:14:16.547Z,28.72
2023-05-06T16:16:44.014Z,27.69
2023-05-06T16:19:11.455Z,28.48
2023-05-06T16:21:38.862Z,28.55
2023-05-06T16:24:06.706Z,28.19
2023-05-06T16:26:34.074Z,27.53
2023-05-06T16:29:02.765Z,27.10
2023-05-06T16:31:30.515Z,26.66
2023-05-06T16:33:57.912Z,26.75
2023-05-06T16:36:26.763Z,26.91
2023-05-06T16:38:54.136Z,26.33
2023-05-06T16:41:21.704Z,25.86
2023-05-06T16:43:49.179Z,25.39
2023-05-06T16:46:18.720Z,25.34
2023-05-06T16:48:46.489Z,25.07
2023-05-06T16:51:15.706Z,25.48
2023-05-06T16:53:43.165Z,25.37
2023-05-06T16:56:11.093Z,25.45
2023-05-06T16:58:38.494Z,25.84
2023-05-06T17:01:07.931Z,26.05
2023-05-06T17:03:37.864Z,26.15
2023-05-06T17:06:05.598Z,26.63
2023-05-06T17:08:36.422Z,26.54
2023-05-06T17:11:07.327Z,26.10
2023-05-06T17:13:34.757Z,25.94
2023-05-06T17:16:02.190Z,26.32
2023-05-06T17:18:29.575Z,26.68
2023-05-06T17:20:58.342Z,27.01
2023-05-06T17:23:26.287Z,26.81
2023-05-06T17:25:53.712Z,25.11
2023-05-06T17:28:21.301Z,24.25
2023-05-06T17:30:48.710Z,23.45
2023-05-06T17:33:16.096Z,22.25
2023-05-06T17:35:43.572Z,22.59
2023-05-06T17:38:13.466Z,22.22
2023-05-06T17:40:40.868Z,21.41
2023-05-06T17:43:08.226Z,21.21
2023-05-06T17:45:35.693Z,21.10
2023-05-06T17:48:03.318Z,20.84
2023-05-06T17:50:31.016Z,20.61
2023-05-06T17:52:58.409Z,20.47
2023-05-06T17:55:27.150Z,20.24
2023-05-06T17:57:55.394Z,20.11
2023-05-06T18:00:22.940Z,19.79
2023-05-06T18:02:50.500Z,19.49
2023-05-06T18:05:18.447Z,19.10
2023-05-06T18:07:45.852Z,18.99
2023-05-06T18:10:13.728Z,18.88
2023-05-06T18:12:45.150Z,18.67
2023-05-06T18:15:13.086Z,18.48
2023-05-06T18:17:40.796Z,18.30
2023-05-06T18:20:10.062Z,18.16
2023-05-06T18:22:38.888Z,18.00
2023-05-06T18:25:07.715Z,17.94
2023-05-06T18:27:35.980Z,17.85
2023-05-06T18:30:06.452Z,17.71
2023-05-06T18:32:35.648Z,17.56
2023-05-06T18:35:03.094Z,17.40
2023-05-06T18:37:30.642Z,17.39
2023-05-06T18:39:58.041Z,17.37
2023-05-06T18:42:25.445Z,17.21
2023-05-06T18:44:52.977Z,17.09
2023-05-06T18:47:21.917Z,16.92
2023-05-06T18:49:49.412Z,16.93
2023-05-06T18:52:17.723Z,16.76
2023-05-06T18:54:46.168Z,16.67
2023-05-06T18:57:13.677Z,16.67
2023-05-06T18:59:41.195Z,16.67
2023-05-06T19:02:08.920Z,16.67
2023-05-06T19:04:45.255Z,16.67
2023-05-06T19:07:14.353Z,16.67
2023-05-06T19:09:43.158Z,16.67
2023-05-06T19:12:10.551Z,16.67
2023-05-06T19:14:39.037Z,16.67
2023-05-06T19:17:06.452Z,16.67
2023-05-06T19:19:33.866Z,16.67
2023-05-06T19:22:02.662Z,16.67
2023-05-06T19:24:31.017Z,16.67
2023-05-06T19:26:58.500Z,16.67
2023-05-06T19:29:25.903Z,16.67
2023-05-06T19:31:53.282Z,16.67
2023-05-06T19:34:20.810Z,16.67
2023-05-06T19:36:48.214Z,16.67
2023-05-06T19:39:17.198Z,16.67
2023-05-06T19:41:45.902Z,16.67
2023-05-06T19:44:13.235Z,16.67
2023-05-06T19:46:40.655Z,16.67
2023-05-06T19:49:08.106Z,16.67
2023-05-06T19:51:36.839Z,16.67
2023-05-06T19:54:04.444Z,16.67
2023-05-06T19:56:33.147Z,16.67
2023-05-06T19:59:00.532Z,16.67
2023-05-06T20:01:28.501Z,16.67
2023-05-06T20:03:56.078Z,16.67
2023-05-06T20:06:23.497Z,16.67
2023-05-06T20:08:50.907Z,16.67
2023-05-06T20:11:19.850Z,16.67
2023-05-06T20:13:49.654Z,16.67
2023-05-06T20:16:17.049Z,16.67
2023-05-06T20:18:45.100Z,16.67
2023-05-06T20:23:39.724Z,16.67
2023-05-06T20:26:07.588Z,-139.23
2023-05-06T20:28:37.694Z,-139.23
2023-05-06T20:31:06.488Z,16.67
2023-05-06T20:33:33.934Z,-139.23
2023-05-06T20:36:01.550Z,-139.23
2023-05-06T20:38:30.718Z,-139.23
2023-05-06T20:40:59.020Z,-139.23
2023-05-06T20:43:26.409Z,-139.23
2023-05-06T20:45:53.852Z,-139.23
2023-05-06T20:48:22.657Z,-139.23
2023-05-06T20:50:52.639Z,-139.23
2023-05-06T20:53:20.023Z,-139.23
2023-05-06T20:55:47.600Z,-139.23
2023-05-06T20:58:15.061Z,-139.23
2023-05-06T21:00:42.578Z,-139.23
2023-05-06T21:03:09.975Z,-139.23
2023-05-06T21:05:38.949Z,-139.23
2023-05-06T21:08:06.325Z,-139.23
2023-05-06T21:10:33.865Z,-139.23
2023-05-06T21:13:01.329Z,-139.23
2023-05-06T21:15:28.839Z,-139.23
2023-05-06T21:17:56.282Z,-139.23
2023-05-06T21:20:23.711Z,-139.23
2023-05-06T21:22:52.432Z,-139.23
2023-05-06T21:25:19.919Z,-139.23
2023-05-06T21:27:47.309Z,-139.23
2023-05-06T21:30:15.134Z,-139.23
2023-05-06T21:32:44.672Z,-139.23
2023-05-06T21:35:12.332Z,-139.23
2023-05-06T21:37:39.852Z,-139.23
2023-05-06T21:40:10.287Z,-139.23
2023-05-06T21:42:37.663Z,-139.23
2023-05-06T21:45:05.894Z,-139.23
2023-05-06T21:47:33.369Z,-139.23
2023-05-06T21:50:00.836Z,-139.23
2023-05-06T21:52:28.197Z,-139.23
2023-05-06T21:54:56.269Z,-139.23
2023-05-06T21:57:25.089Z,-139.23
2023-05-06T21:59:52.643Z,-139.23
2023-05-06T22:02:20.346Z,-139.23
2023-05-06T22:04:47.782Z,-139.23
2023-05-06T22:07:17.665Z,-139.23
2023-05-06T22:09:45.306Z,-139.23
2023-05-06T22:12:13.177Z,-139.23
2023-05-06T22:14:41.987Z,-139.23
2023-05-06T22:17:10.918Z,-139.23
2023-05-06T22:19:38.994Z,-139.23
2023-05-06T22:22:06.660Z,-139.23
2023-05-06T22:24:34.365Z,-139.23
2023-05-06T22:27:01.888Z,-139.23
2023-05-06T22:29:29.323Z,-139.23
2023-05-06T22:31:58.152Z,-139.23
2023-05-06T22:34:25.657Z,-139.23
2023-05-06T22:36:53.173Z,-139.23
2023-05-06T22:39:20.538Z,-139.23
2023-05-06T22:41:49.201Z,-139.23
2023-05-06T22:44:16.594Z,-139.23
2023-05-06T22:46:43.972Z,-139.23
2023-05-06T22:49:12.668Z,-139.23
2023-05-06T22:51:40.116Z,-139.23
2023-05-06T22:54:07.616Z,-139.23
2023-05-06T22:56:35.007Z,-139.23
2023-05-06T22:59:02.409Z,-139.23
2023-05-06T23:01:32.111Z,-139.23
2023-05-06T23:04:00.283Z,-139.23
2023-05-06T23:06:30.743Z,-139.23
2023-05-06T23:08:59.221Z,-139.23
2023-05-06T23:11:26.683Z,-139.23
2023-05-06T23:13:54.103Z,-139.23
2023-05-06T23:16:21.614Z,-139.23
2023-05-06T23:18:49.039Z,-139.23
2023-05-06T23:21:16.451Z,-139.23
2023-05-06T23:23:45.194Z,-139.23
2023-05-06T23:26:12.593Z,-139.23
2023-05-06T23:28:39.965Z,-139.23
2023-05-06T23:31:07.445Z,-139.23
2023-05-06T23:33:34.881Z,-139.23
2023-05-06T23:36:02.542Z,-139.23
2023-05-06T23:38:30.029Z,-139.23
2023-05-06T23:40:58.813Z,-139.23
2023-05-06T23:43:26.249Z,-139.23
2023-05-06T23:45:53.663Z,-139.23
2023-05-06T23:48:21.095Z,-139.23
2023-05-06T23:50:49.252Z,-139.23
2023-05-06T23:53:18.690Z,-139.23
2023-05-06T23:55:46.150Z,-139.23
2023-05-06T23:58:14.848Z,-139.23
